createdAt,value
2018-03-17T00:01:09.224Z,62.2
2018-03-17T00:11:23.757Z,62.4
2018-03-17T00:22:03.090Z,62.6
2018-03-17T00:35:08.899Z,62.5
2018-03-17T00:45:54.472Z,62.5
2018-03-17T00:56:09.220Z,62.4
2018-03-17T01:06:23.439Z,62.3
2018-03-17T01:16:41.285Z,61.9
2018-03-17T01:26:55.842Z,61.9
2018-03-17T01:37:17.652Z,62.0
2018-03-17T01:47:31.888Z,61.8
2018-03-17T01:57:52.417Z,61.6
2018-03-17T02:08:06.503Z,61.8
2018-03-17T02:18:22.544Z,61.5
2018-03-17T02:28:35.802Z,61.5
2018-03-17T02:38:53.930Z,61.5
2018-03-17T02:49:07.535Z,61.4
2018-03-17T02:59:21.683Z,61.4
2018-03-17T03:09:59.338Z,61.0
2018-03-17T03:20:13.952Z,61.4
2018-03-17T03:30:45.256Z,61.2
2018-03-17T03:41:30.568Z,60.9
2018-03-17T03:52:17.422Z,60.5
2018-03-17T04:03:03.064Z,60.7
2018-03-17T04:13:14.878Z,60.3
2018-03-17T04:23:26.663Z,60.7
2018-03-17T04:33:41.188Z,60.5
2018-03-17T04:43:55.144Z,60.5
2018-03-17T04:54:14.811Z,60.8
2018-03-17T05:04:28.549Z,60.6
2018-03-17T05:14:42.581Z,60.6
2018-03-17T05:24:56.147Z,60.6
2018-03-17T05:35:10.342Z,60.6
2018-03-17T05:45:23.932Z,60.5
2018-03-17T06:05:54.203Z,60.7
2018-03-17T06:16:08.707Z,60.4
2018-03-17T06:26:22.641Z,60.5
2018-03-17T06:37:08.174Z,60.4
2018-03-17T06:47:22.472Z,60.3
2018-03-17T06:57:36.210Z,60.3
2018-03-17T07:07:50.849Z,60.1
2018-03-17T07:18:04.587Z,60.1
2018-03-17T07:28:18.846Z,60.2
2018-03-17T07:38:32.969Z,60.3
2018-03-17T07:48:52.437Z,60.2
2018-03-17T07:59:12.190Z,60.2
2018-03-17T08:09:57.589Z,60.2
2018-03-17T08:20:09.531Z,60.2
2018-03-17T08:30:54.938Z,60.5
2018-03-17T08:41:39.822Z,60.4
2018-03-17T08:52:25.131Z,60.5
2018-03-17T09:03:20.902Z,60.5
2018-03-17T09:13:35.659Z,60.7
2018-03-17T09:34:04.392Z,60.9
2018-03-17T09:44:50.070Z,60.6
2018-03-17T09:55:44.591Z,60.2
2018-03-17T10:05:59.021Z,59.9
2018-03-17T10:16:13.514Z,60.0
2018-03-17T10:26:27.753Z,59.6
2018-03-17T10:36:42.188Z,59.3
2018-03-17T10:46:56.337Z,58.5
2018-03-17T10:57:11.152Z,58.6
2018-03-17T11:07:24.470Z,58.3
2018-03-17T11:18:47.169Z,58.2
2018-03-17T11:29:01.221Z,58.2
2018-03-17T11:39:14.884Z,57.9
2018-03-17T11:51:49.945Z,57.9
2018-03-17T12:02:04.061Z,57.8
2018-03-17T12:12:18.422Z,57.7
2018-03-17T12:23:04.163Z,56.8
2018-03-17T12:33:50.011Z,55.5
2018-03-17T12:48:24.951Z,55.1
2018-03-17T13:00:37.667Z,54.9
2018-03-17T13:13:42.460Z,54.0
2018-03-17T13:25:46.372Z,52.7
2018-03-17T13:36:44.693Z,53.3
2018-03-17T13:50:21.594Z,53.8
2018-03-17T14:02:03.312Z,53.9
2018-03-17T14:15:03.891Z,54.9
2018-03-17T14:28:39.923Z,55.0
2018-03-17T14:40:39.819Z,53.4
2018-03-17T14:53:15.365Z,52.6
2018-03-17T15:04:38.847Z,50.8
2018-03-17T15:16:16.365Z,51.1
2018-03-17T15:27:48.447Z,49.6
2018-03-17T15:38:35.106Z,49.3
2018-03-17T15:48:49.080Z,49.2
2018-03-17T15:59:03.928Z,48.3
2018-03-17T16:09:18.339Z,48.7
2018-03-17T16:20:03.845Z,48.5
2018-03-17T16:30:48.600Z,47.8
2018-03-17T16:41:35.417Z,48.5
2018-03-17T16:51:48.797Z,48.4
2018-03-17T17:02:45.760Z,48.2
2018-03-17T17:31:15.061Z,48.0
2018-03-17T17:56:26.021Z,48.5
2018-03-17T18:54:05.002Z,49.2
2018-03-17T19:08:28.777Z,49.1
2018-03-17T19:20:09.866Z,49.5
2018-03-17T19:33:38.741Z,49.2
2018-03-17T19:59:54.891Z,49.4
2018-03-17T20:25:53.636Z,49.6
2018-03-17T20:36:08.907Z,49.8
2018-03-17T20:46:23.923Z,50.2
2018-03-17T21:10:57.555Z,50.8
2018-03-17T21:21:10.741Z,50.9
2018-03-17T21:31:24.011Z,51.0
2018-03-17T21:41:35.504Z,51.4
2018-03-17T21:51:46.696Z,51.2
2018-03-17T22:02:01.092Z,51.5
2018-03-17T22:12:18.831Z,51.6
2018-03-17T22:22:32.806Z,51.5
2018-03-17T22:32:46.748Z,51.8
2018-03-17T22:43:01.604Z,51.8
2018-03-17T22:53:16.346Z,51.4
2018-03-17T23:03:30.687Z,51.4
2018-03-17T23:13:44.907Z,51.3
2018-03-17T23:23:59.162Z,51.1
2018-03-17T23:34:13.445Z,51.3
2018-03-17T23:44:27.892Z,51.0
2018-03-17T23:54:41.616Z,51.0
